createdAt,value
2019-04-11T00:00:31.859Z,60.47
2019-04-11T00:05:28.598Z,59.17
2019-04-11T00:10:25.039Z,60.90
2019-04-11T00:15:21.333Z,60.33
2019-04-11T00:20:18.044Z,56.80
2019-04-11T00:25:14.350Z,50.43
2019-04-11T00:30:13.113Z,32.60
2019-04-11T00:35:09.536Z,26.50
2019-04-11T00:40:06.278Z,20.10
2019-04-11T00:45:03.358Z,18.13
2019-04-11T00:49:59.631Z,7.37
2019-04-11T00:54:55.845Z,11.83
2019-04-11T00:59:51.917Z,6.07
2019-04-11T01:04:48.761Z,4.27
2019-04-11T01:09:44.932Z,3.73
2019-04-11T01:14:41.163Z,2.30
2019-04-11T01:19:40.697Z,1.47
2019-04-11T01:24:36.945Z,1.83
2019-04-11T01:29:33.544Z,3.10
2019-04-11T01:34:30.753Z,4.90
2019-04-11T01:39:37.065Z,1.33
2019-04-11T01:44:34.696Z,1.23
2019-04-11T01:49:32.297Z,2.13
2019-04-11T01:54:28.564Z,1.07
2019-04-11T01:59:24.726Z,1.20
2019-04-11T02:04:28.298Z,1.63
2019-04-11T02:09:24.649Z,1.43
2019-04-11T02:14:25.806Z,2.13
2019-04-11T02:19:21.404Z,2.23
2019-04-11T02:24:36.201Z,1.00
2019-04-11T02:29:33.289Z,1.87
2019-04-11T02:34:29.752Z,2.00
2019-04-11T02:39:27.476Z,1.83
2019-04-11T02:44:36.587Z,1.23
2019-04-11T02:49:23.454Z,1.93
2019-04-11T02:54:22.313Z,1.33
2019-04-11T02:59:19.613Z,0.83
2019-04-11T03:04:16.690Z,0.43
2019-04-11T03:09:13.358Z,0.50
2019-04-11T03:14:12.192Z,1.00
2019-04-11T03:19:24.059Z,2.10
2019-04-11T03:24:10.355Z,0.30
2019-04-11T03:29:06.411Z,1.00
2019-04-11T03:35:02.851Z,0.97
2019-04-11T03:39:27.754Z,1.67
2019-04-11T03:44:14.416Z,0.53
2019-04-11T03:49:16.442Z,0.40
2019-04-11T03:54:01.194Z,1.17
2019-04-11T03:58:58.450Z,1.70
2019-04-11T04:03:55.766Z,3.83
2019-04-11T04:08:55.562Z,1.33
2019-04-11T04:14:02.111Z,2.03
2019-04-11T04:19:15.220Z,1.67
2019-04-11T04:24:34.155Z,0.47
2019-04-11T04:29:29.163Z,79.57
2019-04-11T04:34:26.066Z,3.57
2019-04-11T04:39:31.276Z,1.17
2019-04-11T04:49:41.524Z,1.73
2019-04-11T04:54:48.493Z,1.70
2019-04-11T05:00:00.048Z,1.60
2019-04-11T05:05:06.350Z,1.03
2019-04-11T05:10:11.125Z,0.50
2019-04-11T05:15:12.249Z,2.37
2019-04-11T05:20:21.899Z,1.80
2019-04-11T05:25:22.265Z,0.20
2019-04-11T05:30:31.516Z,0.30
2019-04-11T05:35:44.758Z,1.17
2019-04-11T05:41:00.253Z,1.70
2019-04-11T05:46:25.095Z,1.97
2019-04-11T05:51:23.429Z,2.73
2019-04-11T05:56:25.702Z,2.17
2019-04-11T06:01:31.830Z,0.40
2019-04-11T06:06:52.787Z,1.03
2019-04-11T06:12:21.968Z,0.90
2019-04-11T06:17:34.328Z,2.03
2019-04-11T06:22:36.672Z,0.87
2019-04-11T06:27:55.795Z,1.03
2019-04-11T06:33:13.139Z,0.43
2019-04-11T06:38:28.542Z,1.80
2019-04-11T06:43:46.375Z,1.70
2019-04-11T06:48:56.115Z,1.03
2019-04-11T06:54:09.529Z,2.83
2019-04-11T06:59:10.091Z,1.10
2019-04-11T07:04:13.483Z,0.60
2019-04-11T07:09:18.185Z,0.53
2019-04-11T07:14:45.505Z,0.53
2019-04-11T07:19:58.772Z,0.73
2019-04-11T07:25:16.495Z,0.67
2019-04-11T07:30:37.501Z,1.30
2019-04-11T07:35:52.970Z,0.20
2019-04-11T07:41:08.845Z,0.33
2019-04-11T07:46:25.126Z,0.63
2019-04-11T07:51:32.101Z,1.17
2019-04-11T07:56:58.771Z,0.23
2019-04-11T08:02:12.411Z,2.03
2019-04-11T08:07:24.465Z,0.20
2019-04-11T08:12:25.904Z,0.30
2019-04-11T08:17:33.320Z,1.03
2019-04-11T08:22:39.825Z,0.30
2019-04-11T08:27:50.925Z,1.70
2019-04-11T08:32:56.375Z,2.23
2019-04-11T08:38:02.717Z,2.33
2019-04-11T08:43:21.337Z,0.50
2019-04-11T08:48:19.105Z,0.90
2019-04-11T08:53:32.797Z,1.20
2019-04-11T08:58:38.474Z,1.40
2019-04-11T09:04:07.935Z,2.13
2019-04-11T09:09:20.930Z,2.17
2019-04-11T09:14:34.313Z,1.43
2019-04-11T09:20:07.466Z,1.20
2019-04-11T09:25:25.308Z,0.30
2019-04-11T09:30:30.635Z,2.00
2019-04-11T09:35:29.803Z,0.50
2019-04-11T09:40:44.709Z,0.63
2019-04-11T09:46:18.573Z,0.30
2019-04-11T09:51:40.303Z,1.27
2019-04-11T09:56:54.068Z,0.20
2019-04-11T10:02:16.993Z,0.90
2019-04-11T10:07:44.183Z,1.03
2019-04-11T10:13:00.589Z,0.63
2019-04-11T10:18:34.049Z,0.23
2019-04-11T10:23:43.073Z,0.27
2019-04-11T10:29:00.246Z,1.67
2019-04-11T10:34:17.630Z,0.93
2019-04-11T10:39:33.295Z,1.83
2019-04-11T10:44:48.016Z,1.13
2019-04-11T10:50:19.554Z,5.33
2019-04-11T10:55:19.759Z,0.97
2019-04-11T11:00:31.361Z,0.70
2019-04-11T11:05:30.531Z,1.33
2019-04-11T11:10:28.647Z,0.83
2019-04-11T11:15:37.902Z,2.47
2019-04-11T11:20:50.745Z,0.97
2019-04-11T11:25:51.566Z,3.17
2019-04-11T11:31:05.369Z,1.60
2019-04-11T11:36:39.502Z,0.50
2019-04-11T11:42:10.223Z,2.30
2019-04-11T11:47:35.648Z,1.17
2019-04-11T11:52:53.138Z,1.77
2019-04-11T11:58:14.358Z,0.47
2019-04-11T12:03:27.676Z,1.93
2019-04-11T12:08:44.233Z,0.73
2019-04-11T12:14:04.064Z,0.93
2019-04-11T12:19:08.801Z,7.03
2019-04-11T12:24:23.611Z,3.10
2019-04-11T12:29:49.266Z,3.47
2019-04-11T12:35:08.047Z,1.40
2019-04-11T12:40:33.906Z,3.23
2019-04-11T12:46:00.515Z,1.90
2019-04-11T12:51:39.643Z,1.60
2019-04-11T12:57:03.480Z,0.70
2019-04-11T13:02:33.372Z,1.80
2019-04-11T13:08:09.591Z,3.37
2019-04-11T13:13:33.632Z,4.33
2019-04-11T13:19:04.991Z,1.40
2019-04-11T13:24:57.875Z,4.53
2019-04-11T13:30:14.020Z,2.73
2019-04-11T13:35:20.107Z,2.67
2019-04-11T13:40:54.783Z,1.60
2019-04-11T13:52:00.492Z,2.50
2019-04-11T13:57:45.202Z,0.80
2019-04-11T14:03:13.878Z,1.50
2019-04-11T14:08:19.571Z,1.80
2019-04-11T14:13:15.654Z,0.83
2019-04-11T14:18:41.606Z,2.13
2019-04-11T14:24:11.571Z,0.73
2019-04-11T14:29:30.608Z,3.80
2019-04-11T14:34:47.790Z,1.73
2019-04-11T14:39:48.522Z,1.40
2019-04-11T14:44:53.345Z,3.63
2019-04-11T14:50:02.041Z,3.50
2019-04-11T14:55:11.225Z,2.64
2019-04-11T15:00:38.341Z,2.00
2019-04-11T15:05:47.669Z,1.73
2019-04-11T15:11:19.930Z,1.60
2019-04-11T15:16:58.830Z,1.70
2019-04-11T15:22:29.357Z,2.17
2019-04-11T15:27:59.965Z,1.13
2019-04-11T15:33:16.945Z,3.07
2019-04-11T15:38:36.610Z,1.87
2019-04-11T15:44:05.065Z,2.40
2019-04-11T15:49:30.327Z,1.50
2019-04-11T15:54:58.314Z,1.03
2019-04-11T16:00:52.885Z,1.50
2019-04-11T16:06:53.568Z,0.70
2019-04-11T16:12:17.602Z,0.77
2019-04-11T16:17:30.795Z,1.67
2019-04-11T16:22:45.827Z,4.00
2019-04-11T16:28:06.563Z,3.37
2019-04-11T16:40:02.035Z,0.50
2019-04-11T16:45:31.144Z,2.47
2019-04-11T16:50:34.608Z,1.40
2019-04-11T16:55:54.736Z,2.20
2019-04-11T17:00:52.545Z,0.87
2019-04-11T17:06:18.730Z,0.80
2019-04-11T17:11:19.548Z,0.20
2019-04-11T17:16:23.448Z,3.50
2019-04-11T17:21:24.381Z,0.77
2019-04-11T17:26:30.023Z,1.57
2019-04-11T17:31:37.566Z,1.23
2019-04-11T17:36:45.125Z,0.37
2019-04-11T17:42:10.853Z,1.37
2019-04-11T17:47:35.310Z,0.50
2019-04-11T17:52:46.729Z,0.60
2019-04-11T17:58:10.603Z,0.40
2019-04-11T18:03:11.825Z,1.50
2019-04-11T18:08:55.142Z,0.50
2019-04-11T18:14:33.933Z,1.57
2019-04-11T18:19:43.988Z,3.80
2019-04-11T18:24:50.099Z,1.07
2019-04-11T18:29:47.161Z,1.57
2019-04-11T18:35:07.378Z,2.00
2019-04-11T18:57:51.777Z,4.03
2019-04-11T19:03:59.781Z,2.17
2019-04-11T19:08:56.031Z,4.37
2019-04-11T19:13:52.187Z,3.80
2019-04-11T19:19:22.479Z,3.00
2019-04-11T19:24:18.378Z,1.27
2019-04-11T19:29:14.271Z,1.97
2019-04-11T19:34:10.598Z,1.73
2019-04-11T19:39:13.667Z,0.60
2019-04-11T19:44:07.255Z,0.83
2019-04-11T19:49:03.217Z,3.20
2019-04-11T19:54:02.913Z,1.77
2019-04-11T19:58:56.606Z,0.93
2019-04-11T20:03:54.139Z,0.90
2019-04-11T20:08:49.961Z,2.00
2019-04-11T20:13:45.695Z,3.20
2019-04-11T20:18:50.940Z,1.13
2019-04-11T20:23:41.760Z,0.30
2019-04-11T20:28:58.111Z,4.30
2019-04-11T20:39:28.182Z,0.70
2019-04-11T20:44:27.205Z,0.97
2019-04-11T20:49:21.708Z,0.53
2019-04-11T20:54:17.690Z,1.50
2019-04-11T20:59:16.743Z,4.17
2019-04-11T21:04:17.508Z,5.33
2019-04-11T21:09:15.297Z,0.20
2019-04-11T21:14:13.864Z,2.97
2019-04-11T21:19:10.296Z,1.37
2019-04-11T21:24:06.197Z,1.03
2019-04-11T21:29:02.189Z,0.93
2019-04-11T21:33:58.081Z,2.10
2019-04-11T21:38:55.030Z,1.40
2019-04-11T21:43:50.913Z,1.17
2019-04-11T21:48:46.735Z,2.30
2019-04-11T21:53:45.155Z,0.20
2019-04-11T21:58:40.260Z,5.43
2019-04-11T22:03:36.481Z,0.33
2019-04-11T22:08:34.533Z,1.40
2019-04-11T22:13:29.934Z,0.20
2019-04-11T22:18:25.844Z,1.90
2019-04-11T22:23:21.858Z,0.73
2019-04-11T22:28:26.495Z,0.40
2019-04-11T22:33:44.347Z,1.27
2019-04-11T22:47:17.531Z,0.20
2019-04-11T22:53:03.623Z,0.50
2019-04-11T22:58:08.535Z,1.80
2019-04-11T23:03:23.397Z,1.70
2019-04-11T23:08:19.900Z,1.17
2019-04-11T23:13:16.344Z,0.97
2019-04-11T23:18:14.026Z,0.93
2019-04-11T23:23:14.043Z,0.60
2019-04-11T23:28:08.425Z,0.93
2019-04-11T23:33:04.345Z,0.00
2019-04-11T23:38:00.181Z,0.33
2019-04-11T23:42:56.261Z,1.27
2019-04-11T23:47:54.423Z,2.03
2019-04-11T23:52:50.298Z,2.00
2019-04-11T23:57:46.223Z,1.07
